createdAt,value
2019-03-23T00:02:04.110Z,4.59
2019-03-23T00:05:01.346Z,4.56
2019-03-23T00:07:59.508Z,4.56
2019-03-23T00:10:56.166Z,4.59
2019-03-23T00:13:52.341Z,4.58
2019-03-23T00:16:49.362Z,4.60
2019-03-23T00:19:46.620Z,4.61
2019-03-23T00:22:43.846Z,4.57
2019-03-23T00:25:40.180Z,4.56
2019-03-23T00:28:39.511Z,4.55
2019-03-23T00:31:35.138Z,4.55
2019-03-23T00:34:33.178Z,4.53
2019-03-23T00:37:30.262Z,4.53
2019-03-23T00:40:27.408Z,4.51
2019-03-23T00:43:24.551Z,4.48
2019-03-23T00:46:20.859Z,4.46
2019-03-23T00:49:18.579Z,4.46
2019-03-23T00:52:14.885Z,4.44
2019-03-23T00:55:13.072Z,4.40
2019-03-23T00:58:10.222Z,4.38
2019-03-23T01:01:07.692Z,4.34
2019-03-23T01:04:05.864Z,4.30
2019-03-23T01:07:02.984Z,4.25
2019-03-23T01:10:00.329Z,4.19
2019-03-23T01:12:56.256Z,4.10
2019-03-23T01:15:53.564Z,4.00
2019-03-23T01:18:49.283Z,3.89
2019-03-23T01:21:47.580Z,3.82
2019-03-23T01:24:44.412Z,3.79
2019-03-23T01:27:40.190Z,3.75
2019-03-23T01:30:37.342Z,3.68
2019-03-23T01:33:33.299Z,3.64
2019-03-23T01:36:31.660Z,3.61
2019-03-23T01:39:28.648Z,3.58
2019-03-23T01:42:25.994Z,3.53
2019-03-23T01:45:20.890Z,3.50
2019-03-23T01:48:20.436Z,3.49
2019-03-23T01:51:18.746Z,3.48
2019-03-23T01:54:16.863Z,3.46
2019-03-23T01:57:14.126Z,3.45
2019-03-23T02:00:11.184Z,3.46
2019-03-23T02:03:08.538Z,3.48
2019-03-23T02:06:05.699Z,3.49
2019-03-23T02:09:04.778Z,3.49
2019-03-23T02:12:01.908Z,3.50
2019-03-23T02:14:57.953Z,3.50
2019-03-23T02:17:55.268Z,3.50
2019-03-23T02:20:51.916Z,3.47
2019-03-23T02:23:49.031Z,3.46
2019-03-23T02:26:45.156Z,3.45
2019-03-23T02:29:43.470Z,3.46
2019-03-23T02:32:39.702Z,3.42
2019-03-23T02:35:36.677Z,3.39
2019-03-23T02:38:32.889Z,3.27
2019-03-23T02:41:29.961Z,3.27
2019-03-23T02:44:27.427Z,3.22
2019-03-23T02:47:23.735Z,3.18
2019-03-23T02:50:19.931Z,3.13
2019-03-23T02:53:17.170Z,3.08
2019-03-23T02:56:15.228Z,3.05
2019-03-23T02:59:12.397Z,3.03
2019-03-23T03:02:09.750Z,2.96
2019-03-23T03:05:05.954Z,2.91
2019-03-23T03:08:03.197Z,2.85
2019-03-23T03:11:03.551Z,2.80
2019-03-23T03:13:59.665Z,2.75
2019-03-23T03:16:56.775Z,2.70
2019-03-23T03:19:52.120Z,2.68
2019-03-23T03:22:50.363Z,2.67
2019-03-23T03:25:46.525Z,2.65
2019-03-23T03:28:45.037Z,2.61
2019-03-23T03:31:42.264Z,2.61
2019-03-23T03:34:39.797Z,2.63
2019-03-23T03:37:36.119Z,2.59
2019-03-23T03:40:34.410Z,2.56
2019-03-23T03:43:31.546Z,2.53
2019-03-23T03:46:27.751Z,2.50
2019-03-23T03:49:25.072Z,2.50
2019-03-23T03:52:21.399Z,2.47
2019-03-23T03:55:19.631Z,2.47
2019-03-23T03:58:15.739Z,2.46
2019-03-23T04:01:12.878Z,2.45
2019-03-23T04:04:10.232Z,2.43
2019-03-23T04:07:06.612Z,2.43
2019-03-23T04:10:03.451Z,2.42
2019-03-23T04:12:59.283Z,2.38
2019-03-23T04:15:56.244Z,2.36
2019-03-23T04:18:53.152Z,2.33
2019-03-23T04:21:52.685Z,2.28
2019-03-23T04:24:49.908Z,2.24
2019-03-23T04:27:46.031Z,2.21
2019-03-23T04:30:48.115Z,2.16
2019-03-23T04:33:44.328Z,2.09
2019-03-23T04:36:42.832Z,1.97
2019-03-23T04:39:39.128Z,1.97
2019-03-23T04:42:37.225Z,1.97
2019-03-23T04:45:33.282Z,1.92
2019-03-23T04:48:30.431Z,1.92
2019-03-23T04:51:27.440Z,1.94
2019-03-23T04:54:23.513Z,1.92
2019-03-23T04:57:20.655Z,1.87
2019-03-23T05:00:16.900Z,1.85
2019-03-23T05:03:14.050Z,1.83
2019-03-23T05:06:10.479Z,1.84
2019-03-23T05:09:07.597Z,1.83
2019-03-23T05:12:06.013Z,1.84
2019-03-23T05:15:03.015Z,1.87
2019-03-23T05:17:59.269Z,1.90
2019-03-23T05:20:56.400Z,1.93
2019-03-23T05:23:54.602Z,1.94
2019-03-23T05:26:50.941Z,1.96
2019-03-23T05:29:48.046Z,1.97
2019-03-23T05:32:47.170Z,2.01
2019-03-23T05:35:43.035Z,2.05
2019-03-23T05:38:44.601Z,2.07
2019-03-23T05:41:37.187Z,2.12
2019-03-23T05:44:34.579Z,2.14
2019-03-23T05:47:29.897Z,2.16
2019-03-23T05:50:26.986Z,2.14
2019-03-23T05:53:25.643Z,2.13
2019-03-23T05:56:22.811Z,2.09
2019-03-23T05:59:19.151Z,2.06
2019-03-23T06:02:18.518Z,2.11
2019-03-23T06:05:15.704Z,1.99
2019-03-23T06:08:11.446Z,1.99
2019-03-23T06:11:08.603Z,1.83
2019-03-23T06:14:05.948Z,1.79
2019-03-23T06:17:04.388Z,1.84
2019-03-23T06:20:00.349Z,1.88
2019-03-23T06:22:59.525Z,1.99
2019-03-23T06:25:55.673Z,2.12
2019-03-23T06:28:52.881Z,2.22
2019-03-23T06:31:49.871Z,2.25
2019-03-23T06:34:45.960Z,2.31
2019-03-23T06:37:43.148Z,2.37
2019-03-23T06:40:39.487Z,2.44
2019-03-23T06:43:37.837Z,2.51
2019-03-23T06:46:34.993Z,2.55
2019-03-23T06:49:30.371Z,2.63
2019-03-23T06:52:27.372Z,2.68
2019-03-23T06:55:23.421Z,2.72
2019-03-23T06:58:20.562Z,2.78
2019-03-23T07:01:16.778Z,2.88
2019-03-23T07:04:14.668Z,3.05
2019-03-23T07:07:11.856Z,3.22
2019-03-23T07:10:08.058Z,3.38
2019-03-23T07:13:06.538Z,3.52
2019-03-23T07:16:03.634Z,3.65
2019-03-23T07:19:01.641Z,3.79
2019-03-23T07:21:58.880Z,3.92
2019-03-23T07:24:57.030Z,4.04
2019-03-23T07:27:54.286Z,4.21
2019-03-23T07:30:50.560Z,4.36
2019-03-23T07:33:48.939Z,4.48
2019-03-23T07:36:44.800Z,4.58
2019-03-23T07:39:41.563Z,4.72
2019-03-23T07:42:37.633Z,4.85
2019-03-23T07:45:35.292Z,5.00
2019-03-23T07:48:32.448Z,5.11
2019-03-23T07:51:28.958Z,5.29
2019-03-23T07:54:28.386Z,5.48
2019-03-23T07:57:24.824Z,5.69
2019-03-23T08:00:21.840Z,5.94
2019-03-23T08:03:18.895Z,6.22
2019-03-23T08:06:15.166Z,6.48
2019-03-23T08:09:20.071Z,6.71
2019-03-23T08:12:08.209Z,6.84
2019-03-23T08:15:05.831Z,6.97
2019-03-23T08:18:03.133Z,7.03
2019-03-23T08:21:00.303Z,7.17
2019-03-23T08:24:00.603Z,7.28
2019-03-23T08:26:56.841Z,7.39
2019-03-23T08:29:55.110Z,7.51
2019-03-23T08:32:51.491Z,7.69
2019-03-23T08:35:49.931Z,7.93
2019-03-23T08:38:46.028Z,8.14
2019-03-23T08:41:42.943Z,8.28
2019-03-23T08:44:39.875Z,8.41
2019-03-23T08:47:36.654Z,8.57
2019-03-23T08:50:32.995Z,8.69
2019-03-23T08:53:31.354Z,8.99
2019-03-23T08:56:28.599Z,8.99
2019-03-23T08:59:24.221Z,9.24
2019-03-23T09:02:21.917Z,9.41
2019-03-23T09:05:18.593Z,9.49
2019-03-23T09:08:15.709Z,9.61
2019-03-23T09:11:20.259Z,9.69
2019-03-23T09:14:08.841Z,9.77
2019-03-23T09:17:04.753Z,9.88
2019-03-23T09:20:02.076Z,10.04
2019-03-23T09:23:00.447Z,10.15
2019-03-23T09:25:57.606Z,10.27
2019-03-23T09:28:54.790Z,10.48
2019-03-23T09:31:51.095Z,10.67
2019-03-23T09:34:49.315Z,10.78
2019-03-23T09:37:45.676Z,10.92
2019-03-23T09:40:43.322Z,11.03
2019-03-23T09:43:39.122Z,11.13
2019-03-23T09:46:37.038Z,11.26
2019-03-23T09:49:34.247Z,11.43
2019-03-23T09:52:29.966Z,11.55
2019-03-23T09:55:28.785Z,11.60
2019-03-23T09:58:24.264Z,11.64
2019-03-23T10:01:21.762Z,11.87
2019-03-23T10:04:17.805Z,12.10
2019-03-23T10:07:14.890Z,12.24
2019-03-23T10:10:21.390Z,12.40
2019-03-23T10:13:07.653Z,12.52
2019-03-23T10:16:05.890Z,12.60
2019-03-23T10:19:03.009Z,12.71
2019-03-23T10:22:00.227Z,12.74
2019-03-23T10:24:58.747Z,12.78
2019-03-23T10:27:56.853Z,12.87
2019-03-23T10:30:54.004Z,12.97
2019-03-23T10:33:50.194Z,12.99
2019-03-23T10:36:48.674Z,13.10
2019-03-23T10:39:44.309Z,13.29
2019-03-23T10:42:43.173Z,13.51
2019-03-23T10:45:44.146Z,13.64
2019-03-23T10:48:34.744Z,13.67
2019-03-23T10:51:31.678Z,13.74
2019-03-23T10:54:28.163Z,13.81
2019-03-23T10:57:26.577Z,13.93
2019-03-23T11:00:39.614Z,14.05
2019-03-23T11:03:38.927Z,14.12
2019-03-23T11:06:37.362Z,14.23
2019-03-23T11:09:34.489Z,14.29
2019-03-23T11:12:30.893Z,14.37
2019-03-23T11:15:28.062Z,14.46
2019-03-23T11:18:26.380Z,14.51
2019-03-23T11:21:22.453Z,14.44
2019-03-23T11:24:19.966Z,14.53
2019-03-23T11:27:17.309Z,14.73
2019-03-23T11:30:14.509Z,14.90
2019-03-23T11:33:10.817Z,15.07
2019-03-23T11:36:08.126Z,15.16
2019-03-23T11:39:05.419Z,15.26
2019-03-23T11:42:01.693Z,15.32
2019-03-23T11:44:59.031Z,15.46
2019-03-23T11:47:56.016Z,15.56
2019-03-23T11:50:53.467Z,15.66
2019-03-23T11:53:49.418Z,15.77
2019-03-23T11:56:47.608Z,15.72
2019-03-23T11:59:43.196Z,15.79
2019-03-23T12:02:40.371Z,15.85
2019-03-23T12:05:37.530Z,15.85
2019-03-23T12:08:34.850Z,15.87
2019-03-23T12:11:32.198Z,15.91
2019-03-23T12:14:28.641Z,16.07
2019-03-23T12:17:27.216Z,16.10
2019-03-23T12:20:23.487Z,16.01
2019-03-23T12:23:21.210Z,15.99
2019-03-23T12:26:19.263Z,16.04
2019-03-23T12:29:14.639Z,16.10
2019-03-23T12:32:11.784Z,16.20
2019-03-23T12:35:08.205Z,16.17
2019-03-23T12:38:10.515Z,16.24
2019-03-23T12:41:18.547Z,16.44
2019-03-23T12:44:03.783Z,16.49
2019-03-23T12:47:01.145Z,16.44
2019-03-23T12:49:57.371Z,16.49
2019-03-23T12:52:54.868Z,16.57
2019-03-23T12:55:51.126Z,16.57
2019-03-23T12:58:55.459Z,16.62
2019-03-23T13:01:51.612Z,16.64
2019-03-23T13:04:48.456Z,16.83
2019-03-23T13:07:46.367Z,16.93
2019-03-23T13:10:42.529Z,16.97
2019-03-23T13:13:40.655Z,16.96
2019-03-23T13:16:35.953Z,17.03
2019-03-23T13:19:34.344Z,17.04
2019-03-23T13:22:32.027Z,17.09
2019-03-23T13:25:29.259Z,17.20
2019-03-23T13:28:28.668Z,17.33
2019-03-23T13:31:24.898Z,17.42
2019-03-23T13:34:22.122Z,17.54
2019-03-23T13:37:17.037Z,17.53
2019-03-23T13:40:15.217Z,17.37
2019-03-23T13:43:11.624Z,17.36
2019-03-23T13:46:08.768Z,17.34
2019-03-23T13:49:12.734Z,17.42
2019-03-23T13:52:08.473Z,17.63
2019-03-23T13:55:05.704Z,17.72
2019-03-23T13:58:02.825Z,17.79
2019-03-23T14:00:59.895Z,17.78
2019-03-23T14:03:56.174Z,17.89
2019-03-23T14:06:53.328Z,18.06
2019-03-23T14:09:50.547Z,18.22
2019-03-23T14:12:47.720Z,18.27
2019-03-23T14:15:45.199Z,18.28
2019-03-23T14:18:42.852Z,18.35
2019-03-23T14:21:40.352Z,18.39
2019-03-23T14:24:36.479Z,18.47
2019-03-23T14:27:33.876Z,18.48
2019-03-23T14:30:31.233Z,18.47
2019-03-23T14:33:29.557Z,18.49
2019-03-23T14:36:25.842Z,18.60
2019-03-23T14:39:24.767Z,18.77
2019-03-23T14:42:21.481Z,18.91
2019-03-23T14:45:18.866Z,18.93
2019-03-23T14:48:15.993Z,19.06
2019-03-23T14:51:12.226Z,19.23
2019-03-23T14:54:09.443Z,19.57
2019-03-23T14:57:06.356Z,19.96
2019-03-23T15:00:04.810Z,20.49
2019-03-23T15:03:00.927Z,20.96
2019-03-23T15:05:58.174Z,21.35
2019-03-23T15:08:54.499Z,21.65
2019-03-23T15:11:51.372Z,21.93
2019-03-23T15:14:47.604Z,21.93
2019-03-23T15:17:48.930Z,21.98
2019-03-23T15:20:46.019Z,22.07
2019-03-23T15:23:44.074Z,22.11
2019-03-23T15:26:45.660Z,22.06
2019-03-23T15:29:43.193Z,22.10
2019-03-23T15:32:41.850Z,22.09
2019-03-23T15:35:37.813Z,22.10
2019-03-23T15:38:35.036Z,21.77
2019-03-23T15:41:32.410Z,21.60
2019-03-23T15:44:29.824Z,21.37
2019-03-23T15:47:28.130Z,21.18
2019-03-23T15:50:26.444Z,20.74
2019-03-23T15:53:24.913Z,20.35
2019-03-23T15:56:21.285Z,20.03
2019-03-23T15:59:19.523Z,19.42
2019-03-23T16:02:15.695Z,18.97
2019-03-23T16:05:14.139Z,18.77
2019-03-23T16:08:11.540Z,18.68
2019-03-23T16:11:08.503Z,18.57
2019-03-23T16:14:05.752Z,18.43
2019-03-23T16:17:03.145Z,18.20
2019-03-23T16:20:04.551Z,18.04
2019-03-23T16:23:00.813Z,17.87
2019-03-23T16:25:58.897Z,17.74
2019-03-23T16:28:56.382Z,17.58
2019-03-23T16:31:54.632Z,17.45
2019-03-23T16:34:52.794Z,17.33
2019-03-23T16:37:47.781Z,17.26
2019-03-23T16:40:46.056Z,17.16
2019-03-23T16:43:42.214Z,17.04
2019-03-23T16:46:38.522Z,16.87
2019-03-23T16:49:35.062Z,16.73
2019-03-23T16:52:32.325Z,16.59
2019-03-23T16:55:29.768Z,16.47
2019-03-23T16:58:27.148Z,16.39
2019-03-23T17:01:24.208Z,16.27
2019-03-23T17:04:21.438Z,16.15
2019-03-23T17:07:17.631Z,16.02
2019-03-23T17:10:13.970Z,15.92
2019-03-23T17:13:11.169Z,15.81
2019-03-23T17:16:08.371Z,15.68
2019-03-23T17:19:04.427Z,15.56
2019-03-23T17:22:02.581Z,15.43
2019-03-23T17:24:59.067Z,15.32
2019-03-23T17:27:56.349Z,15.18
2019-03-23T17:30:53.846Z,15.07
2019-03-23T17:33:50.968Z,14.93
2019-03-23T17:36:48.796Z,14.78
2019-03-23T17:39:45.802Z,14.63
2019-03-23T17:42:44.339Z,14.46
2019-03-23T17:45:40.525Z,14.27
2019-03-23T17:48:37.628Z,14.16
2019-03-23T17:51:35.979Z,14.07
2019-03-23T17:54:33.136Z,13.97
2019-03-23T17:57:30.086Z,13.83
2019-03-23T18:00:27.283Z,13.65
2019-03-23T18:03:23.871Z,13.48
2019-03-23T18:06:21.031Z,13.34
2019-03-23T18:09:22.027Z,13.19
2019-03-23T18:12:20.714Z,13.05
2019-03-23T18:15:16.797Z,12.93
2019-03-23T18:18:13.946Z,12.78
2019-03-23T18:21:09.671Z,12.64
2019-03-23T18:24:07.140Z,12.52
2019-03-23T18:27:03.253Z,12.40
2019-03-23T18:30:00.405Z,12.26
2019-03-23T18:32:58.448Z,12.12
2019-03-23T18:35:55.747Z,12.00
2019-03-23T18:38:52.815Z,11.92
2019-03-23T18:41:50.939Z,11.82
2019-03-23T18:44:48.030Z,11.71
2019-03-23T18:47:43.920Z,11.63
2019-03-23T18:50:42.718Z,11.56
2019-03-23T18:53:38.542Z,11.48
2019-03-23T18:56:37.665Z,11.35
2019-03-23T18:59:33.830Z,11.20
2019-03-23T19:02:30.550Z,11.08
2019-03-23T19:05:28.645Z,10.98
2019-03-23T19:08:26.341Z,10.88
2019-03-23T19:11:23.988Z,10.80
2019-03-23T19:14:20.138Z,10.72
2019-03-23T19:17:17.398Z,10.65
2019-03-23T19:20:13.970Z,10.59
2019-03-23T19:23:11.741Z,10.54
2019-03-23T19:26:08.845Z,10.46
2019-03-23T19:29:05.844Z,10.41
2019-03-23T19:32:02.158Z,10.34
2019-03-23T19:35:00.185Z,10.30
2019-03-23T19:37:56.950Z,10.22
2019-03-23T19:40:55.069Z,10.08
2019-03-23T19:43:52.149Z,10.08
2019-03-23T19:46:49.445Z,10.03
2019-03-23T19:49:45.759Z,9.95
2019-03-23T19:52:43.125Z,9.87
2019-03-23T19:55:40.643Z,9.84
2019-03-23T19:58:37.794Z,9.73
2019-03-23T20:01:34.227Z,9.62
2019-03-23T20:04:31.798Z,9.52
2019-03-23T20:07:33.070Z,9.44
2019-03-23T20:10:25.078Z,9.39
2019-03-23T20:13:21.786Z,9.33
2019-03-23T20:16:19.243Z,9.25
2019-03-23T20:19:15.075Z,9.14
2019-03-23T20:22:12.312Z,9.04
2019-03-23T20:25:09.571Z,9.00
2019-03-23T20:28:07.013Z,8.95
2019-03-23T20:31:03.086Z,8.90
2019-03-23T20:34:01.149Z,8.83
2019-03-23T20:36:57.299Z,8.75
2019-03-23T20:39:54.744Z,8.69
2019-03-23T20:42:53.259Z,8.65
2019-03-23T20:45:52.574Z,8.56
2019-03-23T20:48:49.747Z,8.51
2019-03-23T20:51:46.188Z,8.41
2019-03-23T20:54:43.592Z,8.32
2019-03-23T20:57:43.167Z,8.19
2019-03-23T21:00:39.569Z,8.07
2019-03-23T21:03:36.027Z,8.01
2019-03-23T21:06:31.851Z,7.94
2019-03-23T21:09:30.074Z,7.88
2019-03-23T21:12:27.390Z,7.84
2019-03-23T21:15:25.711Z,7.81
2019-03-23T21:18:24.155Z,7.78
2019-03-23T21:21:20.905Z,7.72
2019-03-23T21:24:19.077Z,7.67
2019-03-23T21:27:19.078Z,7.64
2019-03-23T21:30:15.447Z,7.58
2019-03-23T21:33:12.953Z,7.54
2019-03-23T21:36:10.038Z,7.50
2019-03-23T21:39:06.930Z,7.47
2019-03-23T21:42:03.909Z,7.47
2019-03-23T21:45:02.207Z,7.47
2019-03-23T21:47:58.474Z,7.45
2019-03-23T21:50:55.859Z,7.41
2019-03-23T21:53:51.436Z,7.37
2019-03-23T21:56:48.684Z,7.32
2019-03-23T21:59:46.828Z,7.24
2019-03-23T22:02:42.914Z,7.15
2019-03-23T22:05:39.761Z,7.08
2019-03-23T22:08:35.618Z,7.03
2019-03-23T22:11:32.956Z,6.99
2019-03-23T22:14:29.228Z,6.92
2019-03-23T22:17:26.619Z,6.85
2019-03-23T22:20:23.928Z,6.80
2019-03-23T22:23:19.996Z,6.75
2019-03-23T22:26:18.357Z,6.73
2019-03-23T22:29:13.831Z,6.69
2019-03-23T22:32:11.070Z,6.66
2019-03-23T22:35:07.178Z,6.60
2019-03-23T22:38:05.554Z,6.56
2019-03-23T22:41:01.789Z,6.52
2019-03-23T22:43:58.936Z,6.48
2019-03-23T22:46:56.377Z,6.45
2019-03-23T22:49:53.472Z,6.45
2019-03-23T22:52:50.960Z,6.40
2019-03-23T22:55:48.164Z,6.36
2019-03-23T22:58:45.974Z,6.31
2019-03-23T23:01:41.907Z,6.28
2019-03-23T23:04:38.964Z,6.26
2019-03-23T23:07:36.187Z,6.22
2019-03-23T23:10:31.805Z,6.17
2019-03-23T23:13:28.938Z,6.11
2019-03-23T23:16:25.134Z,6.08
2019-03-23T23:19:21.378Z,6.03
2019-03-23T23:22:17.806Z,5.99
2019-03-23T23:25:15.110Z,5.94
2019-03-23T23:28:12.266Z,5.88
2019-03-23T23:31:09.716Z,5.84
2019-03-23T23:34:07.137Z,5.79
2019-03-23T23:37:04.441Z,5.74
2019-03-23T23:40:01.664Z,5.71
2019-03-23T23:42:57.729Z,5.69
2019-03-23T23:45:55.953Z,5.64
2019-03-23T23:48:52.186Z,5.60
2019-03-23T23:51:50.498Z,5.52
2019-03-23T23:54:45.945Z,5.41
2019-03-23T23:57:44.941Z,5.34
